createdAt,value
2023-03-28T00:00:01.102Z,2.8
2023-03-28T00:01:00.874Z,2.8
2023-03-28T00:02:00.558Z,2.9
2023-03-28T00:03:00.330Z,2.8
2023-03-28T00:04:00.106Z,2.9
2023-03-28T00:04:59.766Z,2.8
2023-03-28T00:06:03.513Z,2.8
2023-03-28T00:07:01.035Z,2.8
2023-03-28T00:08:01.137Z,2.8
2023-03-28T00:09:01.134Z,2.9
2023-03-28T00:10:01.051Z,2.9
2023-03-28T00:11:05.831Z,2.8
2023-03-28T00:12:01.449Z,2.8
2023-03-28T00:13:01.163Z,2.8
2023-03-28T00:14:01.312Z,2.8
2023-03-28T00:15:01.091Z,2.8
2023-03-28T00:16:08.884Z,2.8
2023-03-28T00:17:01.080Z,2.8
2023-03-28T00:18:01.130Z,2.7
2023-03-28T00:19:01.104Z,2.7
2023-03-28T00:20:01.100Z,2.7
2023-03-28T00:21:11.202Z,2.7
2023-03-28T00:22:01.514Z,2.7
2023-03-28T00:23:01.121Z,2.7
2023-03-28T00:24:01.144Z,2.7
2023-03-28T00:25:01.137Z,2.7
2023-03-28T00:26:13.209Z,2.7
2023-03-28T00:27:01.038Z,2.7
2023-03-28T00:28:01.078Z,2.6
2023-03-28T00:29:01.020Z,2.7
2023-03-28T00:30:01.170Z,2.6
2023-03-28T00:31:15.719Z,2.6
2023-03-28T00:32:01.306Z,2.6
2023-03-28T00:33:02.107Z,2.6
2023-03-28T00:34:01.046Z,2.6
2023-03-28T00:35:01.103Z,2.6
2023-03-28T00:36:01.323Z,2.6
2023-03-28T00:37:01.105Z,2.5
2023-03-28T00:38:01.112Z,2.5
2023-03-28T00:39:01.388Z,2.5
2023-03-28T00:40:01.526Z,2.5
2023-03-28T00:41:01.527Z,2.5
2023-03-28T00:42:01.041Z,2.5
2023-03-28T00:43:01.039Z,2.4
2023-03-28T00:44:01.074Z,2.4
2023-03-28T00:45:01.051Z,2.4
2023-03-28T00:46:08.936Z,2.4
2023-03-28T00:47:01.103Z,2.4
2023-03-28T00:48:01.152Z,2.4
2023-03-28T00:49:01.414Z,2.3
2023-03-28T00:50:02.289Z,2.4
2023-03-28T00:51:02.298Z,2.4
2023-03-28T00:52:01.026Z,2.4
2023-03-28T00:53:01.032Z,2.3
2023-03-28T00:54:01.110Z,2.4
2023-03-28T00:55:01.121Z,2.4
2023-03-28T00:56:01.940Z,2.3
2023-03-28T00:57:01.684Z,2.3
2023-03-28T00:58:01.541Z,2.4
2023-03-28T00:59:01.237Z,2.4
2023-03-28T01:00:02.032Z,2.4
2023-03-28T01:01:02.539Z,2.4
2023-03-28T01:02:01.221Z,2.3
2023-03-28T01:03:01.660Z,2.3
2023-03-28T01:04:00.849Z,2.3
2023-03-28T01:05:00.464Z,2.3
2023-03-28T01:06:00.235Z,2.3
2023-03-28T01:07:00.051Z,2.3
2023-03-28T01:07:59.643Z,2.3
2023-03-28T01:09:01.194Z,2.3
2023-03-28T01:10:01.137Z,2.3
2023-03-28T01:11:01.164Z,2.3
2023-03-28T01:12:01.046Z,2.3
2023-03-28T01:13:01.049Z,2.3
2023-03-28T01:14:01.111Z,2.3
2023-03-28T01:15:01.030Z,2.3
2023-03-28T01:16:02.812Z,2.3
2023-03-28T01:17:01.045Z,2.3
2023-03-28T01:18:01.102Z,2.3
2023-03-28T01:19:01.852Z,2.3
2023-03-28T01:20:02.082Z,2.3
2023-03-28T01:21:01.521Z,2.3
2023-03-28T01:22:00.405Z,2.3
2023-03-28T01:23:00.112Z,2.3
2023-03-28T01:24:11.741Z,2.4
2023-03-28T01:25:01.092Z,2.4
2023-03-28T01:26:01.432Z,2.4
2023-03-28T01:27:01.134Z,2.4
2023-03-28T01:28:01.515Z,2.4
2023-03-28T01:29:01.016Z,2.4
2023-03-28T01:30:01.098Z,2.4
2023-03-28T01:31:01.039Z,2.4
2023-03-28T01:32:01.164Z,2.4
2023-03-28T01:33:01.107Z,2.4
2023-03-28T01:34:04.493Z,2.3
2023-03-28T01:35:01.501Z,2.3
2023-03-28T01:36:01.350Z,2.4
2023-03-28T01:37:01.047Z,2.3
2023-03-28T01:38:01.066Z,2.3
2023-03-28T01:39:01.463Z,2.3
2023-03-28T01:40:01.125Z,2.4
2023-03-28T01:41:01.043Z,2.4
2023-03-28T01:42:01.719Z,2.4
2023-03-28T01:43:01.143Z,2.4
2023-03-28T01:44:01.131Z,2.3
2023-03-28T01:45:01.166Z,2.4
2023-03-28T01:46:01.392Z,2.4
2023-03-28T01:47:01.691Z,2.3
2023-03-28T01:48:02.152Z,2.4
2023-03-28T01:49:02.245Z,2.4
2023-03-28T01:50:01.045Z,2.4
2023-03-28T01:51:01.091Z,2.4
2023-03-28T01:52:01.028Z,2.4
2023-03-28T01:53:01.061Z,2.4
2023-03-28T01:54:01.073Z,2.3
2023-03-28T01:55:01.075Z,2.3
2023-03-28T01:56:01.755Z,2.2
2023-03-28T01:57:02.166Z,2.2
2023-03-28T01:58:01.421Z,2.1
2023-03-28T01:59:01.118Z,2
2023-03-28T02:00:01.113Z,2
2023-03-28T02:01:01.156Z,1.9
2023-03-28T02:02:04.853Z,1.9
2023-03-28T02:03:01.189Z,1.9
2023-03-28T02:04:01.151Z,1.9
2023-03-28T02:05:01.843Z,1.8
2023-03-28T02:06:01.382Z,1.8
2023-03-28T02:07:07.750Z,1.8
2023-03-28T02:08:01.791Z,1.8
2023-03-28T02:09:01.744Z,1.7
2023-03-28T02:10:01.841Z,1.7
2023-03-28T02:11:01.591Z,1.7
2023-03-28T02:12:11.841Z,1.7
2023-03-28T02:13:01.743Z,1.8
2023-03-28T02:14:00.895Z,1.8
2023-03-28T02:15:00.556Z,1.8
2023-03-28T02:16:00.522Z,1.8
2023-03-28T02:17:12.648Z,1.8
2023-03-28T02:18:01.229Z,1.8
2023-03-28T02:19:01.140Z,1.8
2023-03-28T02:20:01.039Z,1.8
2023-03-28T02:21:01.035Z,1.8
2023-03-28T02:22:16.296Z,1.9
2023-03-28T02:23:01.051Z,1.9
2023-03-28T02:24:01.081Z,1.9
2023-03-28T02:25:01.068Z,1.9
2023-03-28T02:26:02.048Z,2
2023-03-28T02:27:06.340Z,2
2023-03-28T02:28:01.098Z,2
2023-03-28T02:29:01.124Z,2
2023-03-28T02:30:01.107Z,2
2023-03-28T02:31:01.547Z,2.1
2023-03-28T02:32:01.463Z,2
2023-03-28T02:33:02.250Z,2
2023-03-28T02:34:01.946Z,2.1
2023-03-28T02:35:00.924Z,2
2023-03-28T02:36:01.304Z,2.1
2023-03-28T02:37:01.086Z,2.1
2023-03-28T02:38:01.433Z,2
2023-03-28T02:39:01.058Z,2
2023-03-28T02:40:01.057Z,2
2023-03-28T02:41:01.078Z,2
2023-03-28T02:42:01.091Z,2
2023-03-28T02:43:01.030Z,2
2023-03-28T02:44:01.095Z,2
2023-03-28T02:45:01.146Z,2
2023-03-28T02:46:01.300Z,2
2023-03-28T02:47:02.233Z,2
2023-03-28T02:48:01.202Z,2
2023-03-28T02:49:01.570Z,2
2023-03-28T02:50:01.195Z,2
2023-03-28T02:51:01.308Z,2
2023-03-28T02:52:01.161Z,2
2023-03-28T02:53:01.382Z,2
2023-03-28T02:54:02.057Z,2
2023-03-28T02:55:02.354Z,2.1
2023-03-28T02:56:01.367Z,2.1
2023-03-28T02:57:01.147Z,2.1
2023-03-28T02:58:01.080Z,2.1
2023-03-28T02:59:01.109Z,2.1
2023-03-28T03:00:01.108Z,2.1
2023-03-28T03:01:01.147Z,2.1
2023-03-28T03:02:01.110Z,2.1
2023-03-28T03:03:01.149Z,2.1
2023-03-28T03:04:01.149Z,2.1
2023-03-28T03:05:01.753Z,2.1
2023-03-28T03:06:02.000Z,2.1
2023-03-28T03:07:01.568Z,2.1
2023-03-28T03:08:01.048Z,2.1
2023-03-28T03:09:01.311Z,2.1
2023-03-28T03:10:01.985Z,2.1
2023-03-28T03:11:01.589Z,2.1
2023-03-28T03:12:01.081Z,2.1
2023-03-28T03:13:01.094Z,2.1
2023-03-28T03:14:01.290Z,2.1
2023-03-28T03:15:01.071Z,2.1
2023-03-28T03:16:01.795Z,2.2
2023-03-28T03:17:01.493Z,2.2
2023-03-28T03:18:01.111Z,2.2
2023-03-28T03:19:01.020Z,2.2
2023-03-28T03:20:00.612Z,2.2
2023-03-28T03:21:00.218Z,2.2
2023-03-28T03:21:59.902Z,2.1
2023-03-28T03:22:59.687Z,2.2
2023-03-28T03:24:01.339Z,2.2
2023-03-28T03:25:01.164Z,2.2
2023-03-28T03:26:01.540Z,2.2
2023-03-28T03:27:01.265Z,2.2
2023-03-28T03:28:02.295Z,2.2
2023-03-28T03:29:01.185Z,2.2
2023-03-28T03:30:01.072Z,2.2
2023-03-28T03:31:02.244Z,2.2
2023-03-28T03:32:01.786Z,2.2
2023-03-28T03:33:00.909Z,2.2
2023-03-28T03:34:01.086Z,2.2
2023-03-28T03:35:01.118Z,2.2
2023-03-28T03:36:01.303Z,2.2
2023-03-28T03:37:01.106Z,2.2
2023-03-28T03:38:05.344Z,2.3
2023-03-28T03:39:03.840Z,2.3
2023-03-28T03:40:01.933Z,2.3
2023-03-28T03:41:02.058Z,2.3
2023-03-28T03:42:01.744Z,2.2
2023-03-28T03:43:09.452Z,2.3
2023-03-28T03:44:02.707Z,2.3
2023-03-28T03:45:01.156Z,2.3
2023-03-28T03:46:01.307Z,2.3
2023-03-28T03:47:01.112Z,2.3
2023-03-28T03:48:11.158Z,2.3
2023-03-28T03:49:07.973Z,2.3
2023-03-28T03:50:01.736Z,2.3
2023-03-28T03:51:01.111Z,2.3
2023-03-28T03:52:01.113Z,2.3
2023-03-28T03:53:15.201Z,2.3
2023-03-28T03:54:01.128Z,2.3
2023-03-28T03:55:01.112Z,2.3
2023-03-28T03:56:01.354Z,2.3
2023-03-28T03:57:01.468Z,2.3
2023-03-28T03:58:01.042Z,2.3
2023-03-28T03:59:01.287Z,2.3
2023-03-28T04:00:01.066Z,2.3
2023-03-28T04:01:04.375Z,2.3
2023-03-28T04:02:01.058Z,2.3
2023-03-28T04:03:01.080Z,2.3
2023-03-28T04:04:01.589Z,2.2
2023-03-28T04:05:01.145Z,2.2
2023-03-28T04:06:01.181Z,2.1
2023-03-28T04:07:01.103Z,2.1
2023-03-28T04:08:01.091Z,2.1
2023-03-28T04:09:01.123Z,2.1
2023-03-28T04:10:01.126Z,2.1
2023-03-28T04:11:01.168Z,2.1
2023-03-28T04:12:01.351Z,2
2023-03-28T04:13:01.196Z,2
2023-03-28T04:14:01.053Z,2
2023-03-28T04:15:01.214Z,2
2023-03-28T04:16:01.219Z,2
2023-03-28T04:17:02.195Z,2.1
2023-03-28T04:18:03.842Z,2
2023-03-28T04:19:01.427Z,2.1
2023-03-28T04:20:02.212Z,2.1
2023-03-28T04:21:01.046Z,2.1
2023-03-28T04:22:01.100Z,2
2023-03-28T04:23:01.142Z,2.1
2023-03-28T04:24:00.900Z,2
2023-03-28T04:25:01.500Z,2
2023-03-28T04:26:01.260Z,2
2023-03-28T04:27:01.033Z,2
2023-03-28T04:28:00.725Z,2
2023-03-28T04:29:00.446Z,2
2023-03-28T04:30:00.123Z,2
2023-03-28T04:31:00.183Z,2
2023-03-28T04:32:00.134Z,2
2023-03-28T04:32:59.840Z,2
2023-03-28T04:33:59.511Z,2
2023-03-28T04:35:01.244Z,1.9
2023-03-28T04:36:01.319Z,2
2023-03-28T04:37:01.084Z,1.9
2023-03-28T04:38:01.151Z,2
2023-03-28T04:39:01.101Z,2
2023-03-28T04:40:01.736Z,2
2023-03-28T04:41:01.026Z,1.9
2023-03-28T04:42:01.073Z,1.9
2023-03-28T04:43:01.109Z,1.9
2023-03-28T04:44:01.124Z,1.9
2023-03-28T04:45:01.930Z,1.9
2023-03-28T04:46:01.196Z,1.9
2023-03-28T04:47:01.858Z,1.9
2023-03-28T04:48:02.167Z,1.9
2023-03-28T04:49:01.764Z,1.9
2023-03-28T04:50:01.246Z,1.9
2023-03-28T04:51:01.325Z,1.9
2023-03-28T04:52:01.338Z,1.9
2023-03-28T04:53:01.385Z,1.9
2023-03-28T04:54:01.105Z,1.8
2023-03-28T04:55:01.095Z,1.8
2023-03-28T04:56:01.325Z,1.8
2023-03-28T04:57:02.558Z,1.8
2023-03-28T04:58:02.513Z,1.8
2023-03-28T04:59:01.332Z,1.8
2023-03-28T05:00:02.012Z,1.8
2023-03-28T05:01:01.383Z,1.8
2023-03-28T05:02:02.305Z,1.8
2023-03-28T05:03:02.297Z,1.8
2023-03-28T05:04:00.950Z,1.8
2023-03-28T05:05:01.038Z,1.7
2023-03-28T05:06:01.036Z,1.8
2023-03-28T05:07:01.035Z,1.8
2023-03-28T05:08:01.027Z,1.8
2023-03-28T05:09:01.037Z,1.8
2023-03-28T05:10:00.672Z,1.8
2023-03-28T05:11:00.413Z,1.8
2023-03-28T05:12:00.171Z,1.8
2023-03-28T05:12:59.741Z,1.8
2023-03-28T05:14:01.341Z,1.9
2023-03-28T05:15:01.932Z,1.8
2023-03-28T05:16:02.497Z,1.9
2023-03-28T05:17:01.037Z,1.8
2023-03-28T05:18:01.160Z,1.9
2023-03-28T05:19:01.179Z,1.9
2023-03-28T05:20:02.776Z,1.8
2023-03-28T05:21:01.297Z,1.8
2023-03-28T05:22:01.168Z,1.9
2023-03-28T05:23:01.063Z,1.9
2023-03-28T05:24:04.431Z,1.9
2023-03-28T05:25:01.250Z,1.9
2023-03-28T05:26:01.289Z,2
2023-03-28T05:27:01.359Z,2
2023-03-28T05:28:01.357Z,2.1
2023-03-28T05:29:06.947Z,2.1
2023-03-28T05:30:01.524Z,2.2
2023-03-28T05:31:01.645Z,2.3
2023-03-28T05:32:01.871Z,2.3
2023-03-28T05:33:01.488Z,2.4
2023-03-28T05:34:09.277Z,2.3
2023-03-28T05:35:01.702Z,2.2
2023-03-28T05:36:01.044Z,2.1
2023-03-28T05:37:01.196Z,2.1
2023-03-28T05:38:02.254Z,2.1
2023-03-28T05:39:12.781Z,2
2023-03-28T05:40:00.931Z,2
2023-03-28T05:41:01.389Z,2
2023-03-28T05:42:01.161Z,2
2023-03-28T05:43:01.092Z,2
2023-03-28T05:44:14.047Z,2
2023-03-28T05:45:01.035Z,1.9
2023-03-28T05:46:01.195Z,1.9
2023-03-28T05:47:01.096Z,2
2023-03-28T05:48:01.556Z,2.1
2023-03-28T05:49:16.997Z,2.1
2023-03-28T05:50:01.152Z,2.1
2023-03-28T05:51:01.368Z,2.2
2023-03-28T05:52:01.041Z,2.2
2023-03-28T05:53:01.043Z,2.2
2023-03-28T05:54:01.056Z,2.2
2023-03-28T05:55:01.050Z,2.3
2023-03-28T05:56:01.088Z,2.3
2023-03-28T05:57:01.134Z,2.3
2023-03-28T05:58:01.034Z,2.3
2023-03-28T05:59:01.024Z,2.2
2023-03-28T06:00:01.265Z,2.1
2023-03-28T06:01:01.633Z,2.1
2023-03-28T06:02:01.104Z,2.1
2023-03-28T06:03:01.167Z,2.2
2023-03-28T06:04:00.851Z,2.2
2023-03-28T06:05:01.051Z,2.1
2023-03-28T06:06:01.135Z,2.1
2023-03-28T06:07:02.994Z,2.1
2023-03-28T06:08:01.496Z,2.1
2023-03-28T06:09:01.104Z,2.2
2023-03-28T06:10:01.061Z,2.2
2023-03-28T06:11:01.557Z,2.2
2023-03-28T06:12:01.437Z,2.2
2023-03-28T06:13:01.036Z,2.2
2023-03-28T06:14:01.074Z,2.2
2023-03-28T06:14:59.965Z,2.2
2023-03-28T06:15:59.550Z,2.2
2023-03-28T06:17:01.141Z,2.3
2023-03-28T06:18:02.167Z,2.3
2023-03-28T06:19:14.326Z,2.3
2023-03-28T06:20:01.598Z,2.4
2023-03-28T06:21:01.690Z,2.4
2023-03-28T06:22:02.507Z,2.5
2023-03-28T06:23:01.037Z,2.5
2023-03-28T06:24:00.725Z,2.4
2023-03-28T06:25:00.760Z,2.4
2023-03-28T06:26:00.320Z,2.5
2023-03-28T06:26:59.850Z,2.5
2023-03-28T06:28:04.639Z,2.4
2023-03-28T06:29:01.735Z,2.5
2023-03-28T06:30:02.478Z,2.4
2023-03-28T06:31:01.740Z,2.5
2023-03-28T06:32:01.204Z,2.5
2023-03-28T06:33:01.089Z,2.5
2023-03-28T06:34:01.111Z,2.5
2023-03-28T06:35:01.125Z,2.4
2023-03-28T06:36:01.843Z,2.5
2023-03-28T06:37:01.524Z,2.4
2023-03-28T06:38:01.206Z,2.4
2023-03-28T06:39:00.917Z,2.4
2023-03-28T06:40:00.532Z,2.4
2023-03-28T06:41:00.456Z,2.5
2023-03-28T06:42:00.336Z,2.5
2023-03-28T06:43:00.015Z,2.5
2023-03-28T06:43:59.718Z,2.5
2023-03-28T06:45:01.503Z,2.5
2023-03-28T06:46:01.127Z,2.5
2023-03-28T06:47:01.081Z,2.5
2023-03-28T06:48:01.258Z,2.5
2023-03-28T06:49:01.493Z,2.5
2023-03-28T06:50:01.296Z,2.5
2023-03-28T06:51:01.320Z,2.5
2023-03-28T06:52:01.108Z,2.5
2023-03-28T06:53:01.121Z,2.5
2023-03-28T06:54:01.137Z,2.5
2023-03-28T06:55:01.316Z,2.5
2023-03-28T06:56:01.526Z,2.6
2023-03-28T06:57:01.245Z,2.6
2023-03-28T06:58:01.058Z,2.6
2023-03-28T06:59:01.064Z,2.6
2023-03-28T07:00:01.038Z,2.6
2023-03-28T07:01:01.264Z,2.6
2023-03-28T07:02:03.179Z,2.6
2023-03-28T07:03:01.976Z,2.6
2023-03-28T07:04:01.150Z,2.7
2023-03-28T07:05:00.976Z,2.6
2023-03-28T07:06:01.106Z,2.6
2023-03-28T07:07:01.336Z,2.6
2023-03-28T07:08:01.265Z,2.6
2023-03-28T07:09:01.245Z,2.5
2023-03-28T07:10:04.863Z,2.6
2023-03-28T07:11:01.582Z,2.5
2023-03-28T07:12:02.379Z,2.5
2023-03-28T07:13:01.839Z,2.6
2023-03-28T07:14:02.060Z,2.6
2023-03-28T07:15:06.768Z,2.6
2023-03-28T07:16:01.828Z,2.6
2023-03-28T07:17:01.980Z,2.6
2023-03-28T07:18:01.187Z,2.6
2023-03-28T07:19:01.083Z,2.6
2023-03-28T07:20:09.983Z,2.7
2023-03-28T07:21:04.322Z,2.7
2023-03-28T07:22:01.491Z,2.6
2023-03-28T07:23:02.562Z,2.6
2023-03-28T07:24:01.224Z,2.6
2023-03-28T07:25:12.535Z,2.6
2023-03-28T07:26:01.134Z,2.7
2023-03-28T07:27:14.102Z,2.7
2023-03-28T07:28:01.180Z,2.7
2023-03-28T07:29:01.335Z,2.8
2023-03-28T07:30:15.721Z,2.8
2023-03-28T07:31:02.679Z,2.8
2023-03-28T07:32:01.486Z,2.9
2023-03-28T07:33:13.025Z,2.9
2023-03-28T07:34:01.103Z,3
2023-03-28T07:35:01.050Z,3
2023-03-28T07:36:01.149Z,3
2023-03-28T07:37:01.957Z,3
2023-03-28T07:38:01.105Z,3
2023-03-28T07:39:01.128Z,3
2023-03-28T07:40:01.111Z,3
2023-03-28T07:41:01.876Z,3
2023-03-28T07:42:02.209Z,3
2023-03-28T07:43:01.243Z,2.9
2023-03-28T07:44:00.885Z,2.9
2023-03-28T07:45:01.041Z,2.9
2023-03-28T07:46:01.055Z,2.8
2023-03-28T07:47:01.058Z,2.8
2023-03-28T07:48:01.075Z,2.8
2023-03-28T07:49:01.064Z,3
2023-03-28T07:50:01.196Z,3
2023-03-28T07:51:01.227Z,3
2023-03-28T07:52:02.993Z,3.1
2023-03-28T07:53:02.058Z,3.1
2023-03-28T07:54:01.021Z,3
2023-03-28T07:55:01.030Z,3
2023-03-28T07:56:01.125Z,3
2023-03-28T07:57:01.714Z,3
2023-03-28T07:58:02.550Z,3
2023-03-28T07:59:01.431Z,3
2023-03-28T08:00:02.680Z,3
2023-03-28T08:01:01.860Z,3
2023-03-28T08:02:02.545Z,3
2023-03-28T08:03:01.151Z,3
2023-03-28T08:04:00.989Z,2.9
2023-03-28T08:05:01.121Z,3
2023-03-28T08:06:01.142Z,3
2023-03-28T08:07:01.077Z,3
2023-03-28T08:08:01.485Z,3.1
2023-03-28T08:09:01.494Z,3.1
2023-03-28T08:10:01.104Z,3.1
2023-03-28T08:11:01.243Z,3.1
2023-03-28T08:12:01.111Z,3.2
2023-03-28T08:13:01.123Z,3.3
2023-03-28T08:14:01.214Z,3.3
2023-03-28T08:15:01.120Z,3.3
2023-03-28T08:16:01.185Z,3.3
2023-03-28T08:17:01.412Z,3.4
2023-03-28T08:18:02.327Z,3.3
2023-03-28T08:19:10.547Z,3.3
2023-03-28T08:20:01.052Z,3.3
2023-03-28T08:21:01.829Z,3.3
2023-03-28T08:22:01.740Z,3.3
2023-03-28T08:23:01.082Z,3.3
2023-03-28T08:24:00.774Z,3.3
2023-03-28T08:25:00.364Z,3.3
2023-03-28T08:25:59.950Z,3.3
2023-03-28T08:26:59.554Z,3.3
2023-03-28T08:28:01.211Z,3.3
2023-03-28T08:29:01.046Z,3.4
2023-03-28T08:30:01.124Z,3.4
2023-03-28T08:31:01.385Z,3.4
2023-03-28T08:32:01.704Z,3.4
2023-03-28T08:33:01.775Z,3.4
2023-03-28T08:34:01.044Z,3.5
2023-03-28T08:35:01.061Z,3.5
2023-03-28T08:36:01.239Z,3.5
2023-03-28T08:37:01.029Z,3.6
2023-03-28T08:38:01.148Z,3.6
2023-03-28T08:39:01.036Z,3.6
2023-03-28T08:40:01.080Z,3.7
2023-03-28T08:41:01.383Z,3.7
2023-03-28T08:42:02.421Z,3.8
2023-03-28T08:43:01.203Z,3.8
2023-03-28T08:44:01.199Z,3.9
2023-03-28T08:45:01.386Z,3.8
2023-03-28T08:46:02.127Z,3.8
2023-03-28T08:47:01.210Z,3.8
2023-03-28T08:48:01.173Z,3.8
2023-03-28T08:49:01.136Z,3.8
2023-03-28T08:50:01.065Z,3.8
2023-03-28T08:51:01.291Z,3.8
2023-03-28T08:52:02.191Z,3.8
2023-03-28T08:53:02.111Z,3.8
2023-03-28T08:54:01.445Z,3.8
2023-03-28T08:55:01.185Z,3.9
2023-03-28T08:56:02.779Z,3.9
2023-03-28T08:57:01.132Z,4
2023-03-28T08:58:01.093Z,4.1
2023-03-28T08:59:01.101Z,4.1
2023-03-28T09:00:01.144Z,4.2
2023-03-28T09:01:04.627Z,4.3
2023-03-28T09:02:01.575Z,4.2
2023-03-28T09:03:01.236Z,4.2
2023-03-28T09:04:01.686Z,4.2
2023-03-28T09:05:21.628Z,4.1
2023-03-28T09:06:08.667Z,4.1
2023-03-28T09:07:01.154Z,4.1
2023-03-28T09:08:01.873Z,4.1
2023-03-28T09:09:01.871Z,4.1
2023-03-28T09:10:01.077Z,4.1
2023-03-28T09:11:10.421Z,4.2
2023-03-28T09:12:01.118Z,4.2
2023-03-28T09:13:01.485Z,4.3
2023-03-28T09:14:02.000Z,4.3
2023-03-28T09:15:01.363Z,4.2
2023-03-28T09:16:12.997Z,4.2
2023-03-28T09:17:00.792Z,4.1
2023-03-28T09:18:00.553Z,4.1
2023-03-28T09:19:00.202Z,4.1
2023-03-28T09:19:59.888Z,4.1
2023-03-28T09:21:14.617Z,4.1
2023-03-28T09:22:14.837Z,4.1
2023-03-28T09:23:01.431Z,4.1
2023-03-28T09:24:01.057Z,4.2
2023-03-28T09:25:00.745Z,4.2
2023-03-28T09:26:01.792Z,4.3
2023-03-28T09:27:01.063Z,4.2
2023-03-28T09:28:01.083Z,4.2
2023-03-28T09:29:01.775Z,4.1
2023-03-28T09:30:02.256Z,4.2
2023-03-28T09:31:17.776Z,4.2
2023-03-28T09:32:01.286Z,4.2
2023-03-28T09:33:01.141Z,4.3
2023-03-28T09:34:01.121Z,4.3
2023-03-28T09:35:01.125Z,4.3
2023-03-28T09:36:01.183Z,4.4
2023-03-28T09:37:01.520Z,4.4
2023-03-28T09:38:01.201Z,4.3
2023-03-28T09:39:01.045Z,4.3
2023-03-28T09:40:01.042Z,4.3
2023-03-28T09:41:01.199Z,4.3
2023-03-28T09:42:01.046Z,4.2
2023-03-28T09:43:01.094Z,4.2
2023-03-28T09:44:01.094Z,4.3
2023-03-28T09:45:01.081Z,4.3
2023-03-28T09:46:01.373Z,4.3
2023-03-28T09:47:04.477Z,4.3
2023-03-28T09:48:01.227Z,4.4
2023-03-28T09:49:02.120Z,4.5
2023-03-28T09:50:11.875Z,4.5
2023-03-28T09:51:01.422Z,4.5
2023-03-28T09:52:02.772Z,4.6
2023-03-28T09:53:01.536Z,4.6
2023-03-28T09:54:01.537Z,4.6
2023-03-28T09:55:01.827Z,4.7
2023-03-28T09:56:04.663Z,4.8
2023-03-28T09:57:01.082Z,4.8
2023-03-28T09:58:01.449Z,4.8
2023-03-28T09:59:01.067Z,4.9
2023-03-28T10:00:01.071Z,4.9
2023-03-28T10:01:01.284Z,4.9
2023-03-28T10:02:01.120Z,5
2023-03-28T10:03:01.124Z,5
2023-03-28T10:04:01.089Z,5
2023-03-28T10:05:01.882Z,5
2023-03-28T10:06:01.034Z,5
2023-03-28T10:07:01.431Z,5
2023-03-28T10:08:01.132Z,5
2023-03-28T10:09:01.130Z,5
2023-03-28T10:10:01.135Z,5
2023-03-28T10:11:01.200Z,5
2023-03-28T10:12:01.062Z,5
2023-03-28T10:13:01.080Z,4.9
2023-03-28T10:14:01.072Z,4.9
2023-03-28T10:15:01.065Z,4.9
2023-03-28T10:16:01.359Z,4.8
2023-03-28T10:17:07.928Z,4.8
2023-03-28T10:18:01.169Z,4.8
2023-03-28T10:19:01.098Z,4.8
2023-03-28T10:20:01.100Z,4.7
2023-03-28T10:21:01.313Z,4.7
2023-03-28T10:22:01.023Z,4.7
2023-03-28T10:23:03.334Z,4.7
2023-03-28T10:24:01.483Z,4.8
2023-03-28T10:25:01.839Z,4.8
2023-03-28T10:26:01.139Z,4.8
2023-03-28T10:27:01.033Z,4.8
2023-03-28T10:28:01.079Z,4.9
2023-03-28T10:29:03.720Z,4.9
2023-03-28T10:30:01.065Z,5
2023-03-28T10:31:02.112Z,5
2023-03-28T10:32:01.452Z,5
2023-03-28T10:33:01.172Z,5
2023-03-28T10:34:01.093Z,5
2023-03-28T10:35:01.118Z,5
2023-03-28T10:36:01.117Z,5
2023-03-28T10:37:01.098Z,5
2023-03-28T10:38:01.501Z,5
2023-03-28T10:39:01.124Z,5
2023-03-28T10:40:01.304Z,5
2023-03-28T10:41:01.531Z,5.1
2023-03-28T10:42:02.216Z,5.1
2023-03-28T10:43:01.375Z,5.2
2023-03-28T10:44:01.043Z,5.2
2023-03-28T10:45:00.762Z,5.3
2023-03-28T10:46:00.471Z,5.3
2023-03-28T10:47:00.138Z,5.3
2023-03-28T10:47:59.767Z,5.2
2023-03-28T10:49:01.809Z,5.2
2023-03-28T10:50:01.087Z,5.2
2023-03-28T10:51:01.578Z,5.1
2023-03-28T10:52:02.608Z,5.1
2023-03-28T10:53:01.390Z,5.1
2023-03-28T10:54:01.108Z,5.1
2023-03-28T10:55:01.824Z,5.1
2023-03-28T10:56:01.136Z,5
2023-03-28T10:57:04.980Z,5
2023-03-28T10:58:01.126Z,5
2023-03-28T10:59:01.430Z,5
2023-03-28T11:00:01.055Z,5.1
2023-03-28T11:01:01.441Z,5.1
2023-03-28T11:02:09.460Z,5.2
2023-03-28T11:03:01.205Z,5.3
2023-03-28T11:04:01.450Z,5.3
2023-03-28T11:05:00.885Z,5.4
2023-03-28T11:06:09.533Z,5.5
2023-03-28T11:07:12.613Z,5.5
2023-03-28T11:08:02.100Z,5.5
2023-03-28T11:09:01.278Z,5.5
2023-03-28T11:10:01.314Z,5.5
2023-03-28T11:11:02.766Z,5.5
2023-03-28T11:12:27.620Z,5.5
2023-03-28T11:13:04.256Z,5.5
2023-03-28T11:14:02.083Z,5.5
2023-03-28T11:15:01.152Z,5.5
2023-03-28T11:16:01.214Z,5.4
2023-03-28T11:17:16.867Z,5.5
2023-03-28T11:18:02.521Z,5.5
2023-03-28T11:19:01.067Z,5.5
2023-03-28T11:20:01.066Z,5.6
2023-03-28T11:21:01.414Z,5.6
2023-03-28T11:22:01.155Z,5.7
2023-03-28T11:23:06.218Z,5.8
2023-03-28T11:24:01.405Z,5.8
2023-03-28T11:25:02.051Z,5.8
2023-03-28T11:26:01.609Z,5.8
2023-03-28T11:27:14.717Z,5.7
2023-03-28T11:28:01.921Z,5.7
2023-03-28T11:29:01.549Z,5.7
2023-03-28T11:30:01.022Z,5.6
2023-03-28T11:31:01.669Z,5.6
2023-03-28T11:32:01.479Z,5.6
2023-03-28T11:33:01.101Z,5.5
2023-03-28T11:34:01.060Z,5.5
2023-03-28T11:35:01.066Z,5.6
2023-03-28T11:36:01.416Z,5.6
2023-03-28T11:37:01.109Z,5.8
2023-03-28T11:38:01.136Z,5.9
2023-03-28T11:39:01.523Z,6
2023-03-28T11:40:00.960Z,6.1
2023-03-28T11:41:01.173Z,6.2
2023-03-28T11:42:01.038Z,6.3
2023-03-28T11:43:01.100Z,6.3
2023-03-28T11:44:01.155Z,6.3
2023-03-28T11:45:01.116Z,6.3
2023-03-28T11:46:01.132Z,6.2
2023-03-28T11:47:01.138Z,6.2
2023-03-28T11:48:01.187Z,6.2
2023-03-28T11:49:01.181Z,6.2
2023-03-28T11:50:01.322Z,6.2
2023-03-28T11:51:01.480Z,6.2
2023-03-28T11:52:01.510Z,6.2
2023-03-28T11:53:01.084Z,6.2
2023-03-28T11:54:01.099Z,6.2
2023-03-28T11:55:01.034Z,6.2
2023-03-28T11:56:01.394Z,6.2
2023-03-28T11:57:01.206Z,6.2
2023-03-28T11:58:01.843Z,6.2
2023-03-28T11:59:01.117Z,6.3
2023-03-28T12:00:01.218Z,6.3
2023-03-28T12:01:02.628Z,6.3
2023-03-28T12:02:01.311Z,6.4
2023-03-28T12:03:03.065Z,6.4
2023-03-28T12:04:02.212Z,6.4
2023-03-28T12:05:01.033Z,6.4
2023-03-28T12:06:04.896Z,6.4
2023-03-28T12:07:03.283Z,6.5
2023-03-28T12:08:01.114Z,6.5
2023-03-28T12:09:01.453Z,6.5
2023-03-28T12:10:02.243Z,6.5
2023-03-28T12:11:01.312Z,6.5
2023-03-28T12:12:02.321Z,6.5
2023-03-28T12:13:01.088Z,6.5
2023-03-28T12:14:11.737Z,6.5
2023-03-28T12:15:01.165Z,6.5
2023-03-28T12:16:01.144Z,6.5
2023-03-28T12:17:01.143Z,6.5
2023-03-28T12:18:01.561Z,6.4
2023-03-28T12:19:02.203Z,6.4
2023-03-28T12:20:01.943Z,6.3
2023-03-28T12:21:02.347Z,6.3
2023-03-28T12:22:01.721Z,6.4
2023-03-28T12:23:01.741Z,6.5
2023-03-28T12:24:01.359Z,6.5
2023-03-28T12:25:01.083Z,6.5
2023-03-28T12:26:01.461Z,6.6
2023-03-28T12:27:01.200Z,6.6
2023-03-28T12:28:01.086Z,6.6
2023-03-28T12:29:01.090Z,6.6
2023-03-28T12:30:01.086Z,6.7
2023-03-28T12:31:01.388Z,6.8
2023-03-28T12:32:01.101Z,6.8
2023-03-28T12:33:01.045Z,6.8
2023-03-28T12:34:01.144Z,6.8
2023-03-28T12:35:01.133Z,6.8
2023-03-28T12:36:01.162Z,6.8
2023-03-28T12:37:01.156Z,6.9
2023-03-28T12:38:01.354Z,6.9
2023-03-28T12:39:01.042Z,6.8
2023-03-28T12:40:01.051Z,6.9
2023-03-28T12:41:01.441Z,6.9
2023-03-28T12:42:01.745Z,6.9
2023-03-28T12:43:06.011Z,6.9
2023-03-28T12:44:01.464Z,6.9
2023-03-28T12:45:00.941Z,6.9
2023-03-28T12:46:01.165Z,6.9
2023-03-28T12:47:01.096Z,6.9
2023-03-28T12:48:09.150Z,7
2023-03-28T12:49:01.132Z,7
2023-03-28T12:50:01.121Z,7
2023-03-28T12:51:01.301Z,7
2023-03-28T12:52:02.454Z,7
2023-03-28T12:53:11.728Z,7
2023-03-28T12:54:01.087Z,6.9
2023-03-28T12:55:01.979Z,7
2023-03-28T12:56:04.487Z,7
2023-03-28T12:57:01.086Z,7
2023-03-28T12:58:14.985Z,6.9
2023-03-28T12:59:01.795Z,6.9
2023-03-28T13:00:01.069Z,6.9
2023-03-28T13:01:02.023Z,7
2023-03-28T13:02:01.947Z,7
2023-03-28T13:03:01.432Z,7
2023-03-28T13:04:01.066Z,7
2023-03-28T13:05:00.846Z,7
2023-03-28T13:06:01.165Z,7
2023-03-28T13:07:01.059Z,7.1
2023-03-28T13:08:01.570Z,7.1
2023-03-28T13:09:01.182Z,7.1
2023-03-28T13:10:01.395Z,7.2
2023-03-28T13:11:01.231Z,7.3
2023-03-28T13:12:02.414Z,7.3
2023-03-28T13:13:02.081Z,7.3
2023-03-28T13:14:01.146Z,7.4
2023-03-28T13:15:01.514Z,7.3
2023-03-28T13:16:01.071Z,7.3
2023-03-28T13:17:01.087Z,7.3
2023-03-28T13:18:01.172Z,7.4
2023-03-28T13:19:03.836Z,7.3
2023-03-28T13:20:01.109Z,7.3
2023-03-28T13:21:01.437Z,7.3
2023-03-28T13:22:02.401Z,7.3
2023-03-28T13:23:01.205Z,7.3
2023-03-28T13:24:01.143Z,7.2
2023-03-28T13:25:01.150Z,7.2
2023-03-28T13:26:01.195Z,7.2
2023-03-28T13:27:01.094Z,7.3
2023-03-28T13:28:01.137Z,7.3
2023-03-28T13:29:01.080Z,7.4
2023-03-28T13:30:01.096Z,7.5
2023-03-28T13:31:01.929Z,7.5
2023-03-28T13:32:01.354Z,7.5
2023-03-28T13:33:01.604Z,7.5
2023-03-28T13:34:02.099Z,7.6
2023-03-28T13:35:01.309Z,7.6
2023-03-28T13:36:02.208Z,7.7
2023-03-28T13:37:00.687Z,7.8
2023-03-28T13:38:00.484Z,7.8
2023-03-28T13:39:00.138Z,7.9
2023-03-28T13:39:59.798Z,7.9
2023-03-28T13:41:01.634Z,7.8
2023-03-28T13:42:01.159Z,7.8
2023-03-28T13:43:01.045Z,7.8
2023-03-28T13:44:01.072Z,7.6
2023-03-28T13:45:01.052Z,7.6
2023-03-28T13:46:02.247Z,7.6
2023-03-28T13:47:00.705Z,7.6
2023-03-28T13:48:12.794Z,7.6
2023-03-28T13:49:01.392Z,7.6
2023-03-28T13:50:04.106Z,7.6
2023-03-28T13:51:01.173Z,7.6
2023-03-28T13:52:01.111Z,7.6
2023-03-28T13:53:01.100Z,7.6
2023-03-28T13:54:01.114Z,7.7